sensor_id;sensor_type;location;lat;lon;timestamp;pressure;altitude;pressure_sealevel;temperature;humidity
78675;BME280;67990;59.826;30.108;2023-05-20T00:01:21;103271.44;;;5.59;73.53
78675;BME280;67990;59.826;30.108;2023-05-20T00:03:48;103268.00;;;5.58;73.96
78675;BME280;67990;59.826;30.108;2023-05-20T00:06:15;103268.06;;;5.55;73.90
78675;BME280;67990;59.826;30.108;2023-05-20T00:08:42;103273.22;;;5.58;74.09
78675;BME280;67990;59.826;30.108;2023-05-20T00:11:28;103271.44;;;5.59;74.06
78675;BME280;67990;59.826;30.108;2023-05-20T00:16:59;103278.91;;;5.72;73.77
78675;BME280;67990;59.826;30.108;2023-05-20T00:19:26;103279.75;;;5.74;73.94
78675;BME280;67990;59.826;30.108;2023-05-20T00:21:53;103272.78;;;5.73;74.09
78675;BME280;67990;59.826;30.108;2023-05-20T00:24:22;103275.41;;;5.73;73.83
78675;BME280;67990;59.826;30.108;2023-05-20T00:26:49;103279.88;;;5.68;73.89
78675;BME280;67990;59.826;30.108;2023-05-20T00:29:20;103277.38;;;5.64;73.75
78675;BME280;67990;59.826;30.108;2023-05-20T00:32:06;103276.59;;;5.62;73.96
78675;BME280;67990;59.826;30.108;2023-05-20T00:34:33;103276.59;;;5.62;73.92
78675;BME280;67990;59.826;30.108;2023-05-20T00:37:01;103277.34;;;5.65;74.13
78675;BME280;67990;59.826;30.108;2023-05-20T00:39:28;103277.34;;;5.65;74.23
78675;BME280;67990;59.826;30.108;2023-05-20T00:41:56;103275.66;;;5.64;74.40
78675;BME280;67990;59.826;30.108;2023-05-20T00:44:26;103279.16;;;5.63;74.52
78675;BME280;67990;59.826;30.108;2023-05-20T00:46:54;103281.78;;;5.63;74.49
78675;BME280;67990;59.826;30.108;2023-05-20T00:49:40;103279.13;;;5.65;73.91
78675;BME280;67990;59.826;30.108;2023-05-20T00:52:07;103276.53;;;5.65;74.14
78675;BME280;67990;59.826;30.108;2023-05-20T00:54:53;103279.09;;;5.66;74.24
78675;BME280;67990;59.826;30.108;2023-05-20T01:00:44;103282.53;;;5.67;74.29
78675;BME280;67990;59.826;30.108;2023-05-20T01:03:30;103279.97;;;5.65;74.58
78675;BME280;67990;59.826;30.108;2023-05-20T01:05:57;103283.31;;;5.70;74.55
78675;BME280;67990;59.826;30.108;2023-05-20T01:08:25;103284.19;;;5.69;74.67
78675;BME280;67990;59.826;30.108;2023-05-20T01:10:57;103292.06;;;5.68;74.82
78675;BME280;67990;59.826;30.108;2023-05-20T01:13:31;103288.63;;;5.67;74.62
78675;BME280;67990;59.826;30.108;2023-05-20T01:16:02;103293.88;;;5.66;74.41
78675;BME280;67990;59.826;30.108;2023-05-20T01:21:17;103295.63;;;5.64;74.09
78675;BME280;67990;59.826;30.108;2023-05-20T01:23:45;103296.44;;;5.67;74.24
78675;BME280;67990;59.826;30.108;2023-05-20T01:26:50;103300.63;;;5.73;74.49
78675;BME280;67990;59.826;30.108;2023-05-20T01:29:36;103286.78;;;5.71;74.10
78675;BME280;67990;59.826;30.108;2023-05-20T01:32:05;103296.16;;;5.78;74.24
78675;BME280;67990;59.826;30.108;2023-05-20T01:34:34;103298.72;;;5.79;74.10
78675;BME280;67990;59.826;30.108;2023-05-20T01:37:23;103298.66;;;5.82;74.15
78675;BME280;67990;59.826;30.108;2023-05-20T01:42:38;103302.75;;;5.93;74.32
78675;BME280;67990;59.826;30.108;2023-05-20T01:45:24;103304.50;;;5.90;74.84
78675;BME280;67990;59.826;30.108;2023-05-20T01:47:52;103302.00;;;5.88;74.88
78675;BME280;67990;59.826;30.108;2023-05-20T01:50:19;103305.47;;;5.88;74.66
78675;BME280;67990;59.826;30.108;2023-05-20T01:53:04;103303.53;;;5.94;74.71
78675;BME280;67990;59.826;30.108;2023-05-20T01:55:53;103305.16;;;5.98;74.87
78675;BME280;67990;59.826;30.108;2023-05-20T01:58:37;103307.63;;;6.05;74.88
78675;BME280;67990;59.826;30.108;2023-05-20T02:01:04;103308.25;;;6.13;74.61
78675;BME280;67990;59.826;30.108;2023-05-20T02:03:31;103307.28;;;6.17;75.00
78675;BME280;67990;59.826;30.108;2023-05-20T02:05:59;103313.06;;;6.26;74.70
78675;BME280;67990;59.826;30.108;2023-05-20T02:08:44;103315.28;;;6.40;74.91
78675;BME280;67990;59.826;30.108;2023-05-20T02:11:13;103321.19;;;6.46;74.89
78675;BME280;67990;59.826;30.108;2023-05-20T02:13:58;103316.50;;;6.57;74.59
78675;BME280;67990;59.826;30.108;2023-05-20T02:16:25;103317.19;;;6.64;74.97
78675;BME280;67990;59.826;30.108;2023-05-20T02:19:12;103315.91;;;6.77;74.53
78675;BME280;67990;59.826;30.108;2023-05-20T02:28:22;103317.28;;;7.16;73.81
78675;BME280;67990;59.826;30.108;2023-05-20T02:30:49;103322.09;;;7.28;73.81
78675;BME280;67990;59.826;30.108;2023-05-20T02:33:16;103321.81;;;7.37;74.00
78675;BME280;67990;59.826;30.108;2023-05-20T02:35:43;103324.78;;;7.51;73.74
78675;BME280;67990;59.826;30.108;2023-05-20T02:38:11;103322.69;;;7.62;73.53
78675;BME280;67990;59.826;30.108;2023-05-20T02:40:38;103326.63;;;7.73;73.01
78675;BME280;67990;59.826;30.108;2023-05-20T02:43:25;103328.69;;;7.90;73.23
78675;BME280;67990;59.826;30.108;2023-05-20T02:48:38;103331.09;;;8.43;71.62
78675;BME280;67990;59.826;30.108;2023-05-20T02:51:05;103332.66;;;8.70;71.98
78675;BME280;67990;59.826;30.108;2023-05-20T02:53:33;103331.06;;;8.88;71.37
78675;BME280;67990;59.826;30.108;2023-05-20T02:55:59;103335.97;;;9.18;70.45
78675;BME280;67990;59.826;30.108;2023-05-20T02:58:28;103330.56;;;9.63;69.59
78675;BME280;67990;59.826;30.108;2023-05-20T03:01:32;103331.59;;;10.57;67.82
78675;BME280;67990;59.826;30.108;2023-05-20T03:04:01;103328.41;;;11.40;66.08
78675;BME280;67990;59.826;30.108;2023-05-20T03:06:29;103335.44;;;12.08;63.72
78675;BME280;67990;59.826;30.108;2023-05-20T03:08:56;103333.34;;;12.94;61.49
78675;BME280;67990;59.826;30.108;2023-05-20T03:11:24;103319.53;;;13.79;58.07
78675;BME280;67990;59.826;30.108;2023-05-20T03:13:52;103319.47;;;14.64;55.30
78675;BME280;67990;59.826;30.108;2023-05-20T03:16:19;103334.09;;;15.49;52.81
78675;BME280;67990;59.826;30.108;2023-05-20T03:18:47;103340.75;;;16.19;49.47
78675;BME280;67990;59.826;30.108;2023-05-20T03:21:33;103331.69;;;16.95;48.15
78675;BME280;67990;59.826;30.108;2023-05-20T03:24:00;103335.47;;;17.51;45.95
78675;BME280;67990;59.826;30.108;2023-05-20T03:26:27;103333.81;;;18.17;44.81
78675;BME280;67990;59.826;30.108;2023-05-20T03:28:57;103334.25;;;18.77;42.32
78675;BME280;67990;59.826;30.108;2023-05-20T03:32:01;103342.47;;;19.59;40.18
78675;BME280;67990;59.826;30.108;2023-05-20T03:37:31;103343.03;;;21.03;38.26
78675;BME280;67990;59.826;30.108;2023-05-20T03:39:58;103331.22;;;21.34;35.88
78675;BME280;67990;59.826;30.108;2023-05-20T03:42:25;103338.13;;;21.75;35.49
78675;BME280;67990;59.826;30.108;2023-05-20T03:44:54;103329.97;;;22.13;35.12
78675;BME280;67990;59.826;30.108;2023-05-20T03:47:40;103336.13;;;21.87;35.29
78675;BME280;67990;59.826;30.108;2023-05-20T03:50:08;103336.72;;;21.42;35.66
78675;BME280;67990;59.826;30.108;2023-05-20T03:55:40;103331.75;;;22.32;35.55
78675;BME280;67990;59.826;30.108;2023-05-20T03:58:10;103334.72;;;22.65;33.19
78675;BME280;67990;59.826;30.108;2023-05-20T04:00:40;103332.78;;;23.02;33.37
78675;BME280;67990;59.826;30.108;2023-05-20T04:03:07;103325.41;;;22.87;31.97
78675;BME280;67990;59.826;30.108;2023-05-20T04:05:53;103324.88;;;23.01;32.37
78675;BME280;67990;59.826;30.108;2023-05-20T04:11:42;103334.94;;;23.51;31.64
78675;BME280;67990;59.826;30.108;2023-05-20T04:14:09;103329.06;;;23.73;31.08
78675;BME280;67990;59.826;30.108;2023-05-20T04:16:55;103340.72;;;23.39;31.08
78675;BME280;67990;59.826;30.108;2023-05-20T04:19:22;103338.59;;;22.98;31.51
78675;BME280;67990;59.826;30.108;2023-05-20T04:22:11;103342.81;;;23.70;30.65
78675;BME280;67990;59.826;30.108;2023-05-20T04:24:56;103339.22;;;23.87;29.73
78675;BME280;67990;59.826;30.108;2023-05-20T04:27:42;103337.72;;;24.44;29.01
78675;BME280;67990;59.826;30.108;2023-05-20T04:30:10;103339.91;;;24.74;28.39
78675;BME280;67990;59.826;30.108;2023-05-20T04:32:41;103327.88;;;25.18;27.77
78675;BME280;67990;59.826;30.108;2023-05-20T04:35:09;103337.03;;;24.83;27.56
78675;BME280;67990;59.826;30.108;2023-05-20T04:37:46;103337.41;;;24.47;28.58
78675;BME280;67990;59.826;30.108;2023-05-20T04:40:14;103323.13;;;24.54;28.19
78675;BME280;67990;59.826;30.108;2023-05-20T04:42:41;103329.03;;;25.07;27.48
78675;BME280;67990;59.826;30.108;2023-05-20T04:45:10;103326.00;;;26.07;26.40
78675;BME280;67990;59.826;30.108;2023-05-20T04:47:41;103327.31;;;26.57;25.62
78675;BME280;67990;59.826;30.108;2023-05-20T04:50:09;103327.91;;;27.28;24.86
78675;BME280;67990;59.826;30.108;2023-05-20T04:52:40;103323.09;;;27.75;24.27
78675;BME280;67990;59.826;30.108;2023-05-20T04:55:11;103326.06;;;28.46;23.29
78675;BME280;67990;59.826;30.108;2023-05-20T04:57:38;103309.63;;;28.62;22.71
78675;BME280;67990;59.826;30.108;2023-05-20T05:00:09;103323.34;;;28.46;23.44
78675;BME280;67990;59.826;30.108;2023-05-20T05:02:37;103329.22;;;28.85;22.91
78675;BME280;67990;59.826;30.108;2023-05-20T05:05:07;103328.00;;;28.88;23.18
78675;BME280;67990;59.826;30.108;2023-05-20T05:07:53;103333.50;;;28.44;22.42
78675;BME280;67990;59.826;30.108;2023-05-20T05:10:20;103330.88;;;28.51;23.04
78675;BME280;67990;59.826;30.108;2023-05-20T05:12:49;103324.03;;;29.05;21.82
78675;BME280;67990;59.826;30.108;2023-05-20T05:15:16;103316.31;;;29.02;22.37
78675;BME280;67990;59.826;30.108;2023-05-20T05:18:02;103300.22;;;29.42;22.08
78675;BME280;67990;59.826;30.108;2023-05-20T05:20:34;103329.13;;;29.35;21.82
78675;BME280;67990;59.826;30.108;2023-05-20T05:23:02;103336.38;;;28.28;22.75
78675;BME280;67990;59.826;30.108;2023-05-20T05:25:29;103299.56;;;27.02;23.88
78675;BME280;67990;59.826;30.108;2023-05-20T05:28:01;103291.00;;;26.37;25.03
78675;BME280;67990;59.826;30.108;2023-05-20T05:30:29;103280.97;;;28.39;23.07
78675;BME280;67990;59.826;30.108;2023-05-20T05:33:14;103290.00;;;27.22;23.17
78675;BME280;67990;59.826;30.108;2023-05-20T05:35:43;103333.88;;;28.41;22.80
78675;BME280;67990;59.826;30.108;2023-05-20T05:38:11;103312.78;;;28.37;22.83
78675;BME280;67990;59.826;30.108;2023-05-20T05:40:41;103310.72;;;27.44;23.31
78675;BME280;67990;59.826;30.108;2023-05-20T05:43:27;103328.53;;;28.98;21.97
78675;BME280;67990;59.826;30.108;2023-05-20T05:45:55;103335.66;;;28.20;23.39
78675;BME280;67990;59.826;30.108;2023-05-20T05:48:22;103339.84;;;28.37;23.04
78675;BME280;67990;59.826;30.108;2023-05-20T05:50:51;103312.53;;;28.82;22.34
78675;BME280;67990;59.826;30.108;2023-05-20T05:53:20;103324.44;;;28.66;22.39
78675;BME280;67990;59.826;30.108;2023-05-20T05:59:49;103324.47;;;27.71;23.34
78675;BME280;67990;59.826;30.108;2023-05-20T06:02:16;103321.53;;;28.39;22.66
78675;BME280;67990;59.826;30.108;2023-05-20T06:05:20;103322.28;;;27.75;22.66
78675;BME280;67990;59.826;30.108;2023-05-20T06:07:48;103326.16;;;28.24;22.89
78675;BME280;67990;59.826;30.108;2023-05-20T06:10:16;103311.13;;;28.86;21.57
78675;BME280;67990;59.826;30.108;2023-05-20T06:12:43;103302.47;;;29.87;19.90
78675;BME280;67990;59.826;30.108;2023-05-20T06:15:30;103333.59;;;28.86;22.26
78675;BME280;67990;59.826;30.108;2023-05-20T06:18:16;103309.97;;;28.59;22.08
78675;BME280;67990;59.826;30.108;2023-05-20T06:20:55;103324.50;;;29.78;21.19
78675;BME280;67990;59.826;30.108;2023-05-20T06:23:41;103309.03;;;30.40;20.48
78675;BME280;67990;59.826;30.108;2023-05-20T06:26:10;103318.91;;;31.86;19.24
78675;BME280;67990;59.826;30.108;2023-05-20T06:28:56;103315.16;;;30.55;20.34
78675;BME280;67990;59.826;30.108;2023-05-20T06:31:40;103318.41;;;29.48;21.20
78675;BME280;67990;59.826;30.108;2023-05-20T06:34:26;103317.75;;;29.67;21.21
78675;BME280;67990;59.826;30.108;2023-05-20T06:36:53;103314.09;;;29.33;21.13
78675;BME280;67990;59.826;30.108;2023-05-20T06:39:23;103311.25;;;29.96;20.70
78675;BME280;67990;59.826;30.108;2023-05-20T06:42:09;103314.22;;;31.02;20.87
78675;BME280;67990;59.826;30.108;2023-05-20T06:44:36;103312.84;;;30.59;19.94
78675;BME280;67990;59.826;30.108;2023-05-20T06:47:19;103321.22;;;29.82;20.88
78675;BME280;67990;59.826;30.108;2023-05-20T06:49:49;103318.16;;;30.26;20.14
78675;BME280;67990;59.826;30.108;2023-05-20T06:52:37;103319.81;;;29.44;21.23
78675;BME280;67990;59.826;30.108;2023-05-20T06:55:24;103325.75;;;28.91;21.58
78675;BME280;67990;59.826;30.108;2023-05-20T06:57:52;103335.06;;;28.53;22.75
78675;BME280;67990;59.826;30.108;2023-05-20T07:00:20;103318.81;;;29.45;21.70
78675;BME280;67990;59.826;30.108;2023-05-20T07:02:47;103330.00;;;29.15;22.25
78675;BME280;67990;59.826;30.108;2023-05-20T07:05:14;103326.78;;;29.32;21.49
78675;BME280;67990;59.826;30.108;2023-05-20T07:07:41;103325.81;;;29.88;21.20
78675;BME280;67990;59.826;30.108;2023-05-20T07:10:08;103322.31;;;30.22;20.71
78675;BME280;67990;59.826;30.108;2023-05-20T07:12:37;103316.72;;;30.02;21.30
78675;BME280;67990;59.826;30.108;2023-05-20T07:15:05;103319.59;;;30.69;20.84
78675;BME280;67990;59.826;30.108;2023-05-20T07:17:50;103316.97;;;30.42;20.63
78675;BME280;67990;59.826;30.108;2023-05-20T07:20:18;103317.28;;;30.19;20.62
78675;BME280;67990;59.826;30.108;2023-05-20T07:22:45;103322.22;;;30.09;21.35
78675;BME280;67990;59.826;30.108;2023-05-20T07:25:37;103327.63;;;31.16;20.68
78675;BME280;67990;59.826;30.108;2023-05-20T07:28:06;103330.28;;;30.30;20.31
78675;BME280;67990;59.826;30.108;2023-05-20T07:30:33;103326.28;;;30.26;20.59
78675;BME280;67990;59.826;30.108;2023-05-20T07:33:17;103327.75;;;29.46;20.94
78675;BME280;67990;59.826;30.108;2023-05-20T07:38:48;103322.94;;;28.64;22.54
78675;BME280;67990;59.826;30.108;2023-05-20T07:41:17;103322.75;;;28.36;22.43
78675;BME280;67990;59.826;30.108;2023-05-20T07:43:46;103320.69;;;28.67;22.68
78675;BME280;67990;59.826;30.108;2023-05-20T07:46:13;103322.50;;;28.46;23.31
78675;BME280;67990;59.826;30.108;2023-05-20T07:48:41;103322.31;;;28.83;22.89
78675;BME280;67990;59.826;30.108;2023-05-20T07:51:08;103317.06;;;29.59;22.53
78675;BME280;67990;59.826;30.108;2023-05-20T07:53:36;103317.97;;;29.45;22.45
78675;BME280;67990;59.826;30.108;2023-05-20T07:56:21;103316.03;;;28.61;23.11
78675;BME280;67990;59.826;30.108;2023-05-20T07:58:53;103316.59;;;29.83;21.72
78675;BME280;67990;59.826;30.108;2023-05-20T08:01:21;103309.56;;;29.88;21.94
78675;BME280;67990;59.826;30.108;2023-05-20T08:04:07;103307.94;;;28.82;22.95
78675;BME280;67990;59.826;30.108;2023-05-20T08:06:35;103307.72;;;29.19;22.49
78675;BME280;67990;59.826;30.108;2023-05-20T08:09:05;103305.13;;;29.81;22.49
78675;BME280;67990;59.826;30.108;2023-05-20T08:11:36;103303.94;;;29.14;22.86
78675;BME280;67990;59.826;30.108;2023-05-20T08:14:06;103306.72;;;29.69;22.45
78675;BME280;67990;59.826;30.108;2023-05-20T08:16:38;103301.22;;;28.28;23.60
78675;BME280;67990;59.826;30.108;2023-05-20T08:19:05;103300.16;;;28.73;24.19
78675;BME280;67990;59.826;30.108;2023-05-20T08:21:32;103294.56;;;28.95;24.24
78675;BME280;67990;59.826;30.108;2023-05-20T08:24:00;103292.31;;;29.68;22.73
78675;BME280;67990;59.826;30.108;2023-05-20T08:26:27;103287.88;;;29.33;22.66
78675;BME280;67990;59.826;30.108;2023-05-20T08:29:20;103301.28;;;28.99;23.23
78675;BME280;67990;59.826;30.108;2023-05-20T08:32:07;103288.41;;;30.05;22.53
78675;BME280;67990;59.826;30.108;2023-05-20T08:34:36;103295.41;;;29.65;22.25
78675;BME280;67990;59.826;30.108;2023-05-20T08:37:04;103289.84;;;28.83;23.54
78675;BME280;67990;59.826;30.108;2023-05-20T08:42:40;103295.97;;;28.56;23.37
78675;BME280;67990;59.826;30.108;2023-05-20T08:45:11;103293.88;;;28.22;23.88
78675;BME280;67990;59.826;30.108;2023-05-20T08:47:41;103297.56;;;28.65;23.30
78675;BME280;67990;59.826;30.108;2023-05-20T08:50:10;103299.75;;;28.11;23.75
78675;BME280;67990;59.826;30.108;2023-05-20T08:52:41;103298.06;;;28.25;23.81
78675;BME280;67990;59.826;30.108;2023-05-20T08:55:34;103292.19;;;28.36;24.25
78675;BME280;67990;59.826;30.108;2023-05-20T08:58:21;103298.13;;;28.60;23.89
78675;BME280;67990;59.826;30.108;2023-05-20T09:00:51;103299.56;;;28.27;24.40
78675;BME280;67990;59.826;30.108;2023-05-20T09:03:18;103293.13;;;27.85;24.86
78675;BME280;67990;59.826;30.108;2023-05-20T09:05:46;103296.19;;;27.67;25.37
78675;BME280;67990;59.826;30.108;2023-05-20T09:08:14;103292.25;;;27.70;24.82
78675;BME280;67990;59.826;30.108;2023-05-20T09:10:45;103299.75;;;27.45;25.54
78675;BME280;67990;59.826;30.108;2023-05-20T09:13:13;103290.56;;;27.69;25.18
78675;BME280;67990;59.826;30.108;2023-05-20T09:16:00;103295.22;;;28.62;24.65
78675;BME280;67990;59.826;30.108;2023-05-20T09:18:47;103288.63;;;27.63;25.28
78675;BME280;67990;59.826;30.108;2023-05-20T09:21:14;103288.91;;;27.68;25.44
78675;BME280;67990;59.826;30.108;2023-05-20T09:23:46;103280.84;;;27.82;24.66
78675;BME280;67990;59.826;30.108;2023-05-20T09:26:13;103277.66;;;28.08;25.13
78675;BME280;67990;59.826;30.108;2023-05-20T09:28:42;103281.03;;;27.58;24.95
78675;BME280;67990;59.826;30.108;2023-05-20T09:31:29;103270.84;;;27.09;26.02
78675;BME280;67990;59.826;30.108;2023-05-20T09:33:59;103266.53;;;27.59;26.98
78675;BME280;67990;59.826;30.108;2023-05-20T09:36:46;103269.34;;;27.66;25.61
78675;BME280;67990;59.826;30.108;2023-05-20T09:39:18;103269.81;;;26.65;26.13
78675;BME280;67990;59.826;30.108;2023-05-20T09:41:55;103262.09;;;26.84;26.83
78675;BME280;67990;59.826;30.108;2023-05-20T09:44:42;103270.16;;;26.31;26.83
78675;BME280;67990;59.826;30.108;2023-05-20T09:47:11;103270.22;;;26.15;27.40
78675;BME280;67990;59.826;30.108;2023-05-20T09:49:39;103268.22;;;26.01;27.73
78675;BME280;67990;59.826;30.108;2023-05-20T09:52:07;103262.41;;;26.28;27.10
78675;BME280;67990;59.826;30.108;2023-05-20T09:58:01;103260.91;;;25.15;27.89
78675;BME280;67990;59.826;30.108;2023-05-20T10:00:28;103267.50;;;25.28;27.77
78675;BME280;67990;59.826;30.108;2023-05-20T10:03:33;103261.28;;;25.44;28.33
78675;BME280;67990;59.826;30.108;2023-05-20T10:06:27;103262.66;;;25.32;27.73
78675;BME280;67990;59.826;30.108;2023-05-20T10:09:21;103263.50;;;24.59;28.01
78675;BME280;67990;59.826;30.108;2023-05-20T10:11:57;103262.94;;;24.97;28.83
78675;BME280;67990;59.826;30.108;2023-05-20T10:14:44;103256.19;;;24.77;28.81
78675;BME280;67990;59.826;30.108;2023-05-20T10:17:23;103252.50;;;24.28;28.85
78675;BME280;67990;59.826;30.108;2023-05-20T10:19:57;103258.72;;;23.70;30.39
78675;BME280;67990;59.826;30.108;2023-05-20T10:22:26;103252.72;;;23.50;30.62
78675;BME280;67990;59.826;30.108;2023-05-20T10:24:58;103258.91;;;23.25;31.44
78675;BME280;67990;59.826;30.108;2023-05-20T10:27:45;103254.03;;;23.21;31.52
78675;BME280;67990;59.826;30.108;2023-05-20T10:33:03;103246.63;;;22.26;32.42
78675;BME280;67990;59.826;30.108;2023-05-20T10:35:51;103251.00;;;21.90;33.16
78675;BME280;67990;59.826;30.108;2023-05-20T10:38:19;103241.47;;;22.15;33.06
78675;BME280;67990;59.826;30.108;2023-05-20T10:43:59;103241.59;;;22.13;33.36
78675;BME280;67990;59.826;30.108;2023-05-20T10:46:27;103239.91;;;21.76;33.70
78675;BME280;67990;59.826;30.108;2023-05-20T10:52:00;103232.97;;;21.46;33.80
78675;BME280;67990;59.826;30.108;2023-05-20T10:54:28;103225.88;;;21.55;33.47
78675;BME280;67990;59.826;30.108;2023-05-20T10:56:55;103231.56;;;21.42;33.62
78675;BME280;67990;59.826;30.108;2023-05-20T10:59:22;103233.34;;;21.61;33.64
78675;BME280;67990;59.826;30.108;2023-05-20T11:01:52;103231.81;;;21.58;34.41
78675;BME280;67990;59.826;30.108;2023-05-20T11:04:38;103230.81;;;21.59;34.53
78675;BME280;67990;59.826;30.108;2023-05-20T11:07:30;103224.53;;;21.87;34.02
78675;BME280;67990;59.826;30.108;2023-05-20T11:10:01;103217.97;;;21.63;34.35
78675;BME280;67990;59.826;30.108;2023-05-20T11:12:33;103223.53;;;21.88;35.57
78675;BME280;67990;59.826;30.108;2023-05-20T11:15:00;103229.66;;;21.81;34.53
78675;BME280;67990;59.826;30.108;2023-05-20T11:17:52;103211.06;;;21.70;33.84
78675;BME280;67990;59.826;30.108;2023-05-20T11:20:20;103223.25;;;21.45;34.01
78675;BME280;67990;59.826;30.108;2023-05-20T11:22:49;103220.19;;;21.21;35.23
78675;BME280;67990;59.826;30.108;2023-05-20T11:25:35;103215.09;;;21.37;35.31
78675;BME280;67990;59.826;30.108;2023-05-20T11:31:25;103218.78;;;20.79;35.87
78675;BME280;67990;59.826;30.108;2023-05-20T11:33:53;103214.56;;;20.67;35.38
78675;BME280;67990;59.826;30.108;2023-05-20T11:39:09;103216.41;;;21.04;36.03
78675;BME280;67990;59.826;30.108;2023-05-20T11:41:44;103213.72;;;21.04;35.19
78675;BME280;67990;59.826;30.108;2023-05-20T11:44:12;103205.00;;;20.93;34.89
78675;BME280;67990;59.826;30.108;2023-05-20T11:52:15;103190.31;;;20.30;35.17
78675;BME280;67990;59.826;30.108;2023-05-20T11:54:51;103203.94;;;20.27;35.33
78675;BME280;67990;59.826;30.108;2023-05-20T11:57:19;103194.94;;;20.28;35.63
78675;BME280;67990;59.826;30.108;2023-05-20T11:59:46;103194.66;;;20.22;35.46
78675;BME280;67990;59.826;30.108;2023-05-20T12:02:13;103188.88;;;20.26;36.01
78675;BME280;67990;59.826;30.108;2023-05-20T12:04:40;103195.06;;;20.17;35.68
78675;BME280;67990;59.826;30.108;2023-05-20T12:07:07;103181.47;;;20.00;35.92
78675;BME280;67990;59.826;30.108;2023-05-20T12:09:34;103183.97;;;19.92;36.55
78675;BME280;67990;59.826;30.108;2023-05-20T12:12:03;103183.75;;;19.65;36.23
78675;BME280;67990;59.826;30.108;2023-05-20T12:14:31;103186.91;;;19.79;36.26
78675;BME280;67990;59.826;30.108;2023-05-20T12:16:57;103183.53;;;19.87;36.74
78675;BME280;67990;59.826;30.108;2023-05-20T12:19:25;103175.00;;;19.93;36.58
78675;BME280;67990;59.826;30.108;2023-05-20T12:21:52;103180.09;;;20.05;36.78
78675;BME280;67990;59.826;30.108;2023-05-20T12:24:19;103175.34;;;19.69;36.96
78675;BME280;67990;59.826;30.108;2023-05-20T12:26:46;103174.72;;;19.56;37.09
78675;BME280;67990;59.826;30.108;2023-05-20T12:29:14;103168.97;;;19.61;37.04
78675;BME280;67990;59.826;30.108;2023-05-20T12:32:18;103163.53;;;19.62;36.80
78675;BME280;67990;59.826;30.108;2023-05-20T12:35:06;103163.09;;;19.67;37.29
78675;BME280;67990;59.826;30.108;2023-05-20T12:37:35;103160.53;;;19.56;36.60
78675;BME280;67990;59.826;30.108;2023-05-20T12:40:02;103151.59;;;19.66;36.59
78675;BME280;67990;59.826;30.108;2023-05-20T12:42:34;103152.16;;;19.70;36.20
78675;BME280;67990;59.826;30.108;2023-05-20T12:45:20;103142.66;;;19.77;36.39
78675;BME280;67990;59.826;30.108;2023-05-20T12:47:48;103154.72;;;19.71;35.95
78675;BME280;67990;59.826;30.108;2023-05-20T12:50:33;103150.84;;;19.85;35.50
78675;BME280;67990;59.826;30.108;2023-05-20T12:53:00;103150.28;;;19.91;35.61
78675;BME280;67990;59.826;30.108;2023-05-20T12:55:28;103154.72;;;19.71;35.42
78675;BME280;67990;59.826;30.108;2023-05-20T12:57:55;103154.03;;;19.79;36.23
78675;BME280;67990;59.826;30.108;2023-05-20T13:00:23;103150.50;;;19.69;36.61
78675;BME280;67990;59.826;30.108;2023-05-20T13:03:09;103151.56;;;19.57;36.45
78675;BME280;67990;59.826;30.108;2023-05-20T13:05:54;103148.50;;;19.61;35.64
78675;BME280;67990;59.826;30.108;2023-05-20T13:08:39;103147.91;;;19.58;36.50
78675;BME280;67990;59.826;30.108;2023-05-20T13:11:06;103150.69;;;19.47;37.68
78675;BME280;67990;59.826;30.108;2023-05-20T13:13:47;103155.09;;;19.37;37.42
78675;BME280;67990;59.826;30.108;2023-05-20T13:16:20;103133.84;;;19.05;37.52
78675;BME280;67990;59.826;30.108;2023-05-20T13:18:47;103142.22;;;19.21;37.90
78675;BME280;67990;59.826;30.108;2023-05-20T13:21:15;103145.81;;;19.31;38.14
78675;BME280;67990;59.826;30.108;2023-05-20T13:24:25;103146.25;;;19.16;37.82
78675;BME280;67990;59.826;30.108;2023-05-20T13:30:20;103141.78;;;18.75;37.96
78675;BME280;67990;59.826;30.108;2023-05-20T13:33:08;103145.16;;;18.77;38.04
78675;BME280;67990;59.826;30.108;2023-05-20T13:36:14;103143.78;;;18.83;37.98
78675;BME280;67990;59.826;30.108;2023-05-20T13:39:00;103146.13;;;18.97;38.05
78675;BME280;67990;59.826;30.108;2023-05-20T13:41:27;103146.63;;;19.11;37.48
78675;BME280;67990;59.826;30.108;2023-05-20T13:43:56;103150.22;;;19.21;37.62
78675;BME280;67990;59.826;30.108;2023-05-20T13:46:26;103151.47;;;19.17;37.19
78675;BME280;67990;59.826;30.108;2023-05-20T13:49:00;103152.88;;;19.21;37.02
78675;BME280;67990;59.826;30.108;2023-05-20T13:51:46;103160.50;;;19.26;36.38
78675;BME280;67990;59.826;30.108;2023-05-20T13:54:13;103155.44;;;19.23;37.20
78675;BME280;67990;59.826;30.108;2023-05-20T13:56:59;103152.97;;;19.31;36.58
78675;BME280;67990;59.826;30.108;2023-05-20T13:59:27;103155.91;;;19.28;36.67
78675;BME280;67990;59.826;30.108;2023-05-20T14:01:54;103144.38;;;19.27;36.41
78675;BME280;67990;59.826;30.108;2023-05-20T14:04:24;103144.44;;;19.37;36.83
78675;BME280;67990;59.826;30.108;2023-05-20T14:06:52;103147.66;;;19.31;36.64
78675;BME280;67990;59.826;30.108;2023-05-20T14:09:37;103134.09;;;19.43;37.05
78675;BME280;67990;59.826;30.108;2023-05-20T14:12:05;103142.84;;;19.55;37.22
78675;BME280;67990;59.826;30.108;2023-05-20T14:14:32;103137.97;;;19.60;36.93
78675;BME280;67990;59.826;30.108;2023-05-20T14:16:59;103134.66;;;19.77;36.99
78675;BME280;67990;59.826;30.108;2023-05-20T14:19:28;103120.88;;;19.72;36.99
78675;BME280;67990;59.826;30.108;2023-05-20T14:21:55;103126.88;;;19.64;37.10
78675;BME280;67990;59.826;30.108;2023-05-20T14:24:41;103127.34;;;19.69;37.22